sensor_id;sensor_type;location;lat;lon;timestamp;pressure;altitude;pressure_sealevel;temperature;humidity
141;BME280;65;48.778;9.160;2023-02-26T00:00:07;98065.06;;;0.29;90.99
141;BME280;65;48.778;9.160;2023-02-26T00:02:56;98060.91;;;0.22;93.36
141;BME280;65;48.778;9.160;2023-02-26T00:05:42;98066.16;;;0.20;94.31
141;BME280;65;48.778;9.160;2023-02-26T00:08:28;98062.81;;;0.15;91.77
141;BME280;65;48.778;9.160;2023-02-26T00:11:15;98066.16;;;0.20;91.87
141;BME280;65;48.778;9.160;2023-02-26T00:14:01;98071.34;;;0.20;92.05
141;BME280;65;48.778;9.160;2023-02-26T00:17:13;98070.63;;;0.14;91.13
141;BME280;65;48.778;9.160;2023-02-26T00:20:03;98067.59;;;-0.05;92.72
141;BME280;65;48.778;9.160;2023-02-26T00:22:49;98067.69;;;-0.10;92.19
141;BME280;65;48.778;9.160;2023-02-26T00:25:35;98062.53;;;-0.11;91.22
141;BME280;65;48.778;9.160;2023-02-26T00:28:21;98066.78;;;-0.07;92.06
141;BME280;65;48.778;9.160;2023-02-26T00:31:07;98064.31;;;-0.13;91.94
141;BME280;65;48.778;9.160;2023-02-26T00:33:55;98063.56;;;-0.18;93.83
141;BME280;65;48.778;9.160;2023-02-26T00:43:16;98075.16;;;-0.33;92.75
141;BME280;65;48.778;9.160;2023-02-26T00:49:02;98077.84;;;-0.38;92.71
141;BME280;65;48.778;9.160;2023-02-26T00:51:55;98076.97;;;-0.37;92.83
141;BME280;65;48.778;9.160;2023-02-26T00:54:41;98078.88;;;-0.45;93.08
141;BME280;65;48.778;9.160;2023-02-26T00:57:27;98072.13;;;-0.53;94.74
141;BME280;65;48.778;9.160;2023-02-26T01:00:13;98069.59;;;-0.56;92.16
141;BME280;65;48.778;9.160;2023-02-26T01:02:59;98071.34;;;-0.57;93.36
141;BME280;65;48.778;9.160;2023-02-26T01:05:45;98079.22;;;-0.63;92.39
141;BME280;65;48.778;9.160;2023-02-26T01:08:33;98074.22;;;-0.72;92.69
141;BME280;65;48.778;9.160;2023-02-26T01:11:22;98081.06;;;-0.68;93.38
141;BME280;65;48.778;9.160;2023-02-26T01:14:08;98074.13;;;-0.68;92.23
141;BME280;65;48.778;9.160;2023-02-26T01:20:05;98067.00;;;-0.58;93.11
141;BME280;65;48.778;9.160;2023-02-26T01:25:58;98075.03;;;-0.70;92.71
141;BME280;65;48.778;9.160;2023-02-26T01:28:45;98069.81;;;-0.69;92.37
141;BME280;65;48.778;9.160;2023-02-26T01:31:59;98067.34;;;-0.75;91.82
141;BME280;65;48.778;9.160;2023-02-26T01:35:04;98070.94;;;-0.80;92.22
141;BME280;65;48.778;9.160;2023-02-26T01:50:16;98079.34;;;-1.12;92.88
141;BME280;65;48.778;9.160;2023-02-26T01:53:22;98082.06;;;-1.21;93.12
141;BME280;65;48.778;9.160;2023-02-26T01:56:14;98084.69;;;-1.23;93.82
141;BME280;65;48.778;9.160;2023-02-26T01:59:03;98083.94;;;-1.30;94.31
141;BME280;65;48.778;9.160;2023-02-26T02:01:55;98082.28;;;-1.34;94.54
141;BME280;65;48.778;9.160;2023-02-26T02:04:42;98094.44;;;-1.37;95.00
141;BME280;65;48.778;9.160;2023-02-26T02:07:28;98092.94;;;-1.49;95.95
141;BME280;65;48.778;9.160;2023-02-26T02:10:15;98091.28;;;-1.53;94.92
141;BME280;65;48.778;9.160;2023-02-26T02:16:11;98089.84;;;-1.71;95.01
141;BME280;65;48.778;9.160;2023-02-26T02:19:18;98089.84;;;-1.74;97.71
141;BME280;65;48.778;9.160;2023-02-26T02:34:05;98105.66;;;-1.91;97.72
141;BME280;65;48.778;9.160;2023-02-26T02:42:58;98119.50;;;-1.92;97.63
141;BME280;65;48.778;9.160;2023-02-26T02:46:07;98112.59;;;-1.93;96.88
141;BME280;65;48.778;9.160;2023-02-26T02:49:04;98108.38;;;-1.98;97.27
141;BME280;65;48.778;9.160;2023-02-26T02:51:53;98119.69;;;-2.04;97.18
141;BME280;65;48.778;9.160;2023-02-26T02:54:45;98113.72;;;-2.09;97.82
141;BME280;65;48.778;9.160;2023-02-26T03:00:39;98123.22;;;-2.11;97.90
141;BME280;65;48.778;9.160;2023-02-26T03:03:54;98122.34;;;-2.10;98.25
141;BME280;65;48.778;9.160;2023-02-26T03:06:42;98128.44;;;-2.12;98.99
141;BME280;65;48.778;9.160;2023-02-26T03:09:29;98130.22;;;-2.17;99.13
141;BME280;65;48.778;9.160;2023-02-26T03:12:15;98130.25;;;-2.19;100.00
141;BME280;65;48.778;9.160;2023-02-26T03:15:01;98133.75;;;-2.23;100.00
141;BME280;65;48.778;9.160;2023-02-26T03:17:53;98134.66;;;-2.26;98.83
141;BME280;65;48.778;9.160;2023-02-26T03:20:55;98132.03;;;-2.24;98.74
141;BME280;65;48.778;9.160;2023-02-26T03:23:50;98140.66;;;-2.24;98.26
141;BME280;65;48.778;9.160;2023-02-26T03:26:43;98143.19;;;-2.19;98.58
141;BME280;65;48.778;9.160;2023-02-26T03:29:38;98138.81;;;-2.14;98.71
141;BME280;65;48.778;9.160;2023-02-26T03:32:29;98142.19;;;-2.09;97.94
141;BME280;65;48.778;9.160;2023-02-26T03:35:22;98151.56;;;-2.00;97.54
141;BME280;65;48.778;9.160;2023-02-26T03:38:20;98143.75;;;-1.99;96.97
141;BME280;65;48.778;9.160;2023-02-26T03:41:12;98143.81;;;-2.02;95.58
141;BME280;65;48.778;9.160;2023-02-26T03:44:03;98143.00;;;-2.05;96.93
141;BME280;65;48.778;9.160;2023-02-26T03:46:55;98148.19;;;-2.05;97.14
141;BME280;65;48.778;9.160;2023-02-26T03:49:52;98148.34;;;-2.17;96.27
141;BME280;65;48.778;9.160;2023-02-26T03:52:42;98148.50;;;-2.30;97.99
141;BME280;65;48.778;9.160;2023-02-26T03:55:40;98152.84;;;-2.35;98.46
141;BME280;65;48.778;9.160;2023-02-26T03:58:29;98158.00;;;-2.33;98.56
141;BME280;65;48.778;9.160;2023-02-26T04:01:21;98160.63;;;-2.36;99.77
141;BME280;65;48.778;9.160;2023-02-26T04:04:15;98155.44;;;-2.33;99.18
141;BME280;65;48.778;9.160;2023-02-26T04:07:02;98164.06;;;-2.34;99.25
141;BME280;65;48.778;9.160;2023-02-26T04:09:49;98158.91;;;-2.36;99.11
141;BME280;65;48.778;9.160;2023-02-26T04:12:36;98165.94;;;-2.45;100.00
141;BME280;65;48.778;9.160;2023-02-26T04:15:21;98162.53;;;-2.49;100.00
141;BME280;65;48.778;9.160;2023-02-26T04:18:07;98171.09;;;-2.45;99.99
141;BME280;65;48.778;9.160;2023-02-26T04:20:53;98164.25;;;-2.49;100.00
141;BME280;65;48.778;9.160;2023-02-26T04:23:41;98166.81;;;-2.48;100.00
141;BME280;65;48.778;9.160;2023-02-26T04:26:27;98167.72;;;-2.52;100.00
141;BME280;65;48.778;9.160;2023-02-26T04:29:13;98171.13;;;-2.47;99.90
141;BME280;65;48.778;9.160;2023-02-26T04:31:58;98168.56;;;-2.48;100.00
141;BME280;65;48.778;9.160;2023-02-26T04:34:45;98179.88;;;-2.57;100.00
141;BME280;65;48.778;9.160;2023-02-26T04:37:30;98176.50;;;-2.64;100.00
141;BME280;65;48.778;9.160;2023-02-26T04:40:16;98176.47;;;-2.62;100.00
141;BME280;65;48.778;9.160;2023-02-26T04:43:03;98182.44;;;-2.57;100.00
141;BME280;65;48.778;9.160;2023-02-26T04:45:49;98187.69;;;-2.62;100.00
141;BME280;65;48.778;9.160;2023-02-26T04:48:34;98192.75;;;-2.54;100.00
141;BME280;65;48.778;9.160;2023-02-26T04:51:20;98190.19;;;-2.56;100.00
141;BME280;65;48.778;9.160;2023-02-26T04:54:06;98193.56;;;-2.47;100.00
141;BME280;65;48.778;9.160;2023-02-26T04:56:51;98205.56;;;-2.42;100.00
141;BME280;65;48.778;9.160;2023-02-26T04:59:37;98198.56;;;-2.35;100.00
141;BME280;65;48.778;9.160;2023-02-26T05:02:23;98201.91;;;-2.22;99.74
141;BME280;65;48.778;9.160;2023-02-26T05:05:09;98192.38;;;-2.20;98.85
141;BME280;65;48.778;9.160;2023-02-26T05:07:54;98194.94;;;-2.17;98.39
141;BME280;65;48.778;9.160;2023-02-26T05:10:41;98201.09;;;-2.28;98.75
141;BME280;65;48.778;9.160;2023-02-26T05:13:27;98198.56;;;-2.35;99.33
141;BME280;65;48.778;9.160;2023-02-26T05:16:12;98205.56;;;-2.43;100.00
141;BME280;65;48.778;9.160;2023-02-26T05:18:58;98207.38;;;-2.50;99.97
141;BME280;65;48.778;9.160;2023-02-26T05:21:44;98207.44;;;-2.55;100.00
141;BME280;65;48.778;9.160;2023-02-26T05:24:29;98216.09;;;-2.57;99.59
141;BME280;65;48.778;9.160;2023-02-26T05:27:15;98218.75;;;-2.63;100.00
141;BME280;65;48.778;9.160;2023-02-26T05:30:01;98219.56;;;-2.61;100.00
141;BME280;65;48.778;9.160;2023-02-26T05:32:47;98219.53;;;-2.57;99.96
141;BME280;65;48.778;9.160;2023-02-26T05:35:33;98223.00;;;-2.59;100.00
141;BME280;65;48.778;9.160;2023-02-26T05:38:18;98231.66;;;-2.63;100.00
141;BME280;65;48.778;9.160;2023-02-26T05:41:04;98235.25;;;-2.75;100.00
141;BME280;65;48.778;9.160;2023-02-26T05:43:50;98234.47;;;-2.84;100.00
141;BME280;65;48.778;9.160;2023-02-26T05:46:36;98244.81;;;-2.84;100.00
141;BME280;65;48.778;9.160;2023-02-26T05:49:21;98249.19;;;-2.96;100.00
141;BME280;65;48.778;9.160;2023-02-26T05:52:07;98244.94;;;-3.01;100.00
141;BME280;65;48.778;9.160;2023-02-26T05:54:53;98255.22;;;-2.94;100.00
141;BME280;65;48.778;9.160;2023-02-26T05:57:39;98255.22;;;-2.95;100.00
141;BME280;65;48.778;9.160;2023-02-26T06:00:24;98256.09;;;-2.96;100.00
141;BME280;65;48.778;9.160;2023-02-26T06:03:10;98262.09;;;-2.88;100.00
141;BME280;65;48.778;9.160;2023-02-26T06:05:56;98263.81;;;-2.92;100.00
141;BME280;65;48.778;9.160;2023-02-26T06:08:42;98269.88;;;-2.96;100.00
141;BME280;65;48.778;9.160;2023-02-26T06:11:28;98277.63;;;-2.94;100.00
141;BME280;65;48.778;9.160;2023-02-26T06:14:14;98278.47;;;-2.88;100.00
141;BME280;65;48.778;9.160;2023-02-26T06:17:01;98287.06;;;-2.85;100.00
141;BME280;65;48.778;9.160;2023-02-26T06:19:47;98287.06;;;-2.85;100.00
141;BME280;65;48.778;9.160;2023-02-26T06:22:33;98292.22;;;-2.85;100.00
141;BME280;65;48.778;9.160;2023-02-26T06:25:18;98298.28;;;-2.87;100.00
141;BME280;65;48.778;9.160;2023-02-26T06:28:04;98297.41;;;-2.85;100.00
141;BME280;65;48.778;9.160;2023-02-26T06:30:53;98306.91;;;-2.94;100.00
141;BME280;65;48.778;9.160;2023-02-26T06:33:39;98310.34;;;-2.90;100.00
141;BME280;65;48.778;9.160;2023-02-26T06:36:25;98309.47;;;-2.88;100.00
141;BME280;65;48.778;9.160;2023-02-26T06:39:10;98324.94;;;-2.81;100.00
141;BME280;65;48.778;9.160;2023-02-26T06:41:57;98322.25;;;-2.68;100.00
141;BME280;65;48.778;9.160;2023-02-26T06:44:43;98334.22;;;-2.59;100.00
141;BME280;65;48.778;9.160;2023-02-26T06:47:28;98344.47;;;-2.47;100.00
141;BME280;65;48.778;9.160;2023-02-26T06:50:14;98347.81;;;-2.31;100.00
141;BME280;65;48.778;9.160;2023-02-26T06:53:00;98343.34;;;-2.18;100.00
141;BME280;65;48.778;9.160;2023-02-26T06:55:49;98355.38;;;-2.13;99.37
141;BME280;65;48.778;9.160;2023-02-26T06:58:35;98359.66;;;-2.10;98.55
141;BME280;65;48.778;9.160;2023-02-26T07:01:21;98366.50;;;-2.05;98.71
141;BME280;65;48.778;9.160;2023-02-26T07:04:07;98366.63;;;-2.15;98.97
141;BME280;65;48.778;9.160;2023-02-26T07:06:52;98368.16;;;-1.96;98.88
141;BME280;65;48.778;9.160;2023-02-26T07:09:38;98367.28;;;-1.95;98.87
141;BME280;65;48.778;9.160;2023-02-26T07:12:24;98370.59;;;-1.84;98.14
141;BME280;65;48.778;9.160;2023-02-26T07:15:10;98372.28;;;-1.80;97.85
141;BME280;65;48.778;9.160;2023-02-26T07:17:55;98376.50;;;-1.70;98.24
141;BME280;65;48.778;9.160;2023-02-26T07:20:41;98376.28;;;-1.51;94.56
141;BME280;65;48.778;9.160;2023-02-26T07:23:27;98373.53;;;-1.38;94.65
141;BME280;65;48.778;9.160;2023-02-26T07:26:13;98387.34;;;-1.39;96.34
141;BME280;65;48.778;9.160;2023-02-26T07:28:59;98375.16;;;-1.31;95.80
141;BME280;65;48.778;9.160;2023-02-26T07:31:45;98376.59;;;-1.07;94.07
141;BME280;65;48.778;9.160;2023-02-26T07:34:31;98380.69;;;-0.92;93.37
141;BME280;65;48.778;9.160;2023-02-26T07:37:17;98380.41;;;-0.74;92.23
141;BME280;65;48.778;9.160;2023-02-26T07:40:03;98381.91;;;-0.59;88.94
141;BME280;65;48.778;9.160;2023-02-26T07:42:51;98385.91;;;-0.37;88.62
141;BME280;65;48.778;9.160;2023-02-26T07:45:36;98388.81;;;-0.55;90.37
141;BME280;65;48.778;9.160;2023-02-26T07:48:22;98388.09;;;-0.68;90.22
141;BME280;65;48.778;9.160;2023-02-26T07:51:08;98389.19;;;-0.82;93.42
141;BME280;65;48.778;9.160;2023-02-26T07:53:55;98393.16;;;-0.58;90.33
141;BME280;65;48.778;9.160;2023-02-26T07:56:41;98396.44;;;-0.46;89.95
141;BME280;65;48.778;9.160;2023-02-26T07:59:27;98402.59;;;-0.53;89.62
141;BME280;65;48.778;9.160;2023-02-26T08:02:13;98402.84;;;-0.70;90.71
141;BME280;65;48.778;9.160;2023-02-26T08:04:58;98407.13;;;-0.67;92.20
141;BME280;65;48.778;9.160;2023-02-26T08:07:44;98402.41;;;-0.41;93.91
141;BME280;65;48.778;9.160;2023-02-26T08:10:30;98406.53;;;-0.29;94.71
141;BME280;65;48.778;9.160;2023-02-26T08:13:16;98406.22;;;-0.11;93.20
141;BME280;65;48.778;9.160;2023-02-26T08:16:02;98400.88;;;-0.02;90.05
141;BME280;65;48.778;9.160;2023-02-26T08:18:48;98411.84;;;0.16;90.29
141;BME280;65;48.778;9.160;2023-02-26T08:21:33;98412.66;;;0.19;89.52
141;BME280;65;48.778;9.160;2023-02-26T08:24:20;98413.31;;;0.29;87.47
141;BME280;65;48.778;9.160;2023-02-26T08:27:06;98410.75;;;0.27;86.57
141;BME280;65;48.778;9.160;2023-02-26T08:29:52;98408.97;;;0.31;87.68
141;BME280;65;48.778;9.160;2023-02-26T08:32:37;98410.16;;;0.13;86.77
141;BME280;65;48.778;9.160;2023-02-26T08:35:26;98414.53;;;0.11;87.22
141;BME280;65;48.778;9.160;2023-02-26T08:38:12;98422.84;;;0.30;83.63
141;BME280;65;48.778;9.160;2023-02-26T08:40:58;98424.19;;;0.05;86.11
141;BME280;65;48.778;9.160;2023-02-26T08:43:44;98416.09;;;0.20;86.71
141;BME280;65;48.778;9.160;2023-02-26T08:46:29;98418.34;;;0.38;83.50
141;BME280;65;48.778;9.160;2023-02-26T08:49:15;98425.84;;;0.09;87.27
141;BME280;65;48.778;9.160;2023-02-26T08:52:01;98432.38;;;-0.21;85.90
141;BME280;65;48.778;9.160;2023-02-26T08:54:47;98435.00;;;-0.23;87.19
141;BME280;65;48.778;9.160;2023-02-26T08:57:33;98437.63;;;-0.24;89.48
141;BME280;65;48.778;9.160;2023-02-26T09:00:19;98446.19;;;-0.19;90.18
141;BME280;65;48.778;9.160;2023-02-26T09:03:05;98446.03;;;-0.10;90.30
141;BME280;65;48.778;9.160;2023-02-26T09:05:50;98450.28;;;-0.05;89.09
141;BME280;65;48.778;9.160;2023-02-26T09:08:36;98440.47;;;0.14;87.65
141;BME280;65;48.778;9.160;2023-02-26T09:11:22;98455.00;;;0.24;87.98
141;BME280;65;48.778;9.160;2023-02-26T09:14:07;98448.22;;;0.16;86.31
141;BME280;65;48.778;9.160;2023-02-26T09:16:54;98450.69;;;0.23;86.62
141;BME280;65;48.778;9.160;2023-02-26T09:19:40;98450.34;;;0.42;84.37
141;BME280;65;48.778;9.160;2023-02-26T09:22:25;98463.22;;;0.48;84.95
141;BME280;65;48.778;9.160;2023-02-26T09:25:12;98457.31;;;0.40;84.67
141;BME280;65;48.778;9.160;2023-02-26T09:27:57;98454.78;;;0.37;85.51
141;BME280;65;48.778;9.160;2023-02-26T09:30:43;98455.78;;;0.29;85.82
141;BME280;65;48.778;9.160;2023-02-26T09:33:29;98460.53;;;0.06;88.08
141;BME280;65;48.778;9.160;2023-02-26T09:36:14;98469.13;;;0.10;88.35
141;BME280;65;48.778;9.160;2023-02-26T09:39:00;98466.59;;;0.05;88.15
141;BME280;65;48.778;9.160;2023-02-26T09:41:52;98475.06;;;0.16;90.48
141;BME280;65;48.778;9.160;2023-02-26T09:44:39;98481.22;;;0.11;89.55
141;BME280;65;48.778;9.160;2023-02-26T09:47:33;98482.31;;;-0.04;90.38
141;BME280;65;48.778;9.160;2023-02-26T09:50:29;98491.78;;;-0.02;91.79
141;BME280;65;48.778;9.160;2023-02-26T09:53:23;98488.41;;;-0.07;90.15
141;BME280;65;48.778;9.160;2023-02-26T09:56:16;98492.75;;;-0.07;91.95
141;BME280;65;48.778;9.160;2023-02-26T09:59:03;98497.81;;;0.04;89.54
141;BME280;65;48.778;9.160;2023-02-26T10:04:58;98497.03;;;-0.05;91.33
141;BME280;65;48.778;9.160;2023-02-26T10:08:09;98495.81;;;0.19;91.61
141;BME280;65;48.778;9.160;2023-02-26T10:11:04;98501.94;;;0.15;91.69
141;BME280;65;48.778;9.160;2023-02-26T10:14:01;98503.38;;;0.31;89.97
141;BME280;65;48.778;9.160;2023-02-26T10:16:53;98500.50;;;0.47;91.80
141;BME280;65;48.778;9.160;2023-02-26T10:19:42;98512.78;;;0.39;92.21
141;BME280;65;48.778;9.160;2023-02-26T10:22:35;98511.78;;;0.46;90.53
141;BME280;65;48.778;9.160;2023-02-26T10:25:26;98504.28;;;0.30;91.44
141;BME280;65;48.778;9.160;2023-02-26T10:31:17;98514.56;;;0.37;93.10
141;BME280;65;48.778;9.160;2023-02-26T10:34:30;98516.34;;;0.35;92.69
141;BME280;65;48.778;9.160;2023-02-26T10:37:57;98515.41;;;0.37;89.20
141;BME280;65;48.778;9.160;2023-02-26T10:40:49;98523.25;;;0.36;88.44
141;BME280;65;48.778;9.160;2023-02-26T10:43:42;98515.88;;;0.62;88.28
141;BME280;65;48.778;9.160;2023-02-26T10:46:36;98521.56;;;0.81;86.08
141;BME280;65;48.778;9.160;2023-02-26T10:52:34;98518.78;;;0.90;82.72
141;BME280;65;48.778;9.160;2023-02-26T10:58:25;98518.97;;;1.25;82.69
141;BME280;65;48.778;9.160;2023-02-26T11:01:16;98517.28;;;1.23;84.20
141;BME280;65;48.778;9.160;2023-02-26T11:04:23;98523.44;;;1.19;83.07
141;BME280;65;48.778;9.160;2023-02-26T11:07:10;98513.75;;;1.25;84.34
141;BME280;65;48.778;9.160;2023-02-26T11:09:59;98513.56;;;1.35;81.38
141;BME280;65;48.778;9.160;2023-02-26T11:12:45;98507.75;;;1.22;82.87
141;BME280;65;48.778;9.160;2023-02-26T11:15:49;98515.28;;;1.36;83.22
141;BME280;65;48.778;9.160;2023-02-26T11:18:43;98505.38;;;1.51;80.93
141;BME280;65;48.778;9.160;2023-02-26T11:21:34;98499.72;;;1.71;79.86
141;BME280;65;48.778;9.160;2023-02-26T11:27:25;98505.47;;;1.87;76.79
141;BME280;65;48.778;9.160;2023-02-26T11:30:19;98501.91;;;1.91;78.35
141;BME280;65;48.778;9.160;2023-02-26T11:33:19;98509.56;;;1.58;77.08
141;BME280;65;48.778;9.160;2023-02-26T11:36:10;98505.59;;;1.42;78.30
141;BME280;65;48.778;9.160;2023-02-26T11:39:04;98514.13;;;1.06;81.58
141;BME280;65;48.778;9.160;2023-02-26T11:41:53;98513.69;;;1.29;80.33
141;BME280;65;48.778;9.160;2023-02-26T11:44:42;98514.69;;;1.63;78.24
141;BME280;65;48.778;9.160;2023-02-26T11:47:30;98507.94;;;1.93;76.32
141;BME280;65;48.778;9.160;2023-02-26T11:50:20;98503.53;;;1.95;76.64
141;BME280;65;48.778;9.160;2023-02-26T11:53:17;98511.59;;;1.84;75.87
141;BME280;65;48.778;9.160;2023-02-26T11:58:54;98513.09;;;1.56;79.72
141;BME280;65;48.778;9.160;2023-02-26T12:01:42;98515.81;;;1.51;77.43
141;BME280;65;48.778;9.160;2023-02-26T12:04:30;98511.81;;;1.35;78.27
141;BME280;65;48.778;9.160;2023-02-26T12:07:16;98497.28;;;1.25;77.48
141;BME280;65;48.778;9.160;2023-02-26T12:10:13;98518.25;;;1.19;80.72
141;BME280;65;48.778;9.160;2023-02-26T12:13:07;98519.69;;;1.32;80.44
141;BME280;65;48.778;9.160;2023-02-26T12:19:00;98522.66;;;1.55;79.14
141;BME280;65;48.778;9.160;2023-02-26T12:28:07;98538.47;;;1.46;79.38
141;BME280;65;48.778;9.160;2023-02-26T12:43:13;98528.06;;;1.46;80.09
141;BME280;65;48.778;9.160;2023-02-26T12:46:31;98532.44;;;1.44;79.35
141;BME280;65;48.778;9.160;2023-02-26T12:49:41;98529.63;;;1.55;79.13
141;BME280;65;48.778;9.160;2023-02-26T13:11:21;98536.00;;;2.53;73.31
141;BME280;65;48.778;9.160;2023-02-26T13:17:27;98538.28;;;2.33;72.83
141;BME280;65;48.778;9.160;2023-02-26T13:20:21;98540.06;;;2.65;71.97
141;BME280;65;48.778;9.160;2023-02-26T13:23:20;98537.97;;;2.45;70.02
141;BME280;65;48.778;9.160;2023-02-26T13:26:09;98534.38;;;2.49;70.90
141;BME280;65;48.778;9.160;2023-02-26T13:29:04;98536.00;;;2.53;71.80
141;BME280;65;48.778;9.160;2023-02-26T13:31:59;98534.06;;;2.61;71.05
141;BME280;65;48.778;9.160;2023-02-26T13:35:00;98536.00;;;2.53;69.23
141;BME280;65;48.778;9.160;2023-02-26T13:37:50;98537.56;;;2.60;68.16
141;BME280;65;48.778;9.160;2023-02-26T13:40:52;98540.19;;;2.60;67.84
141;BME280;65;48.778;9.160;2023-02-26T13:56:41;98538.97;;;2.73;66.19
141;BME280;65;48.778;9.160;2023-02-26T14:02:42;98550.53;;;2.97;63.16
141;BME280;65;48.778;9.160;2023-02-26T14:05:33;98551.59;;;3.21;61.62
141;BME280;65;48.778;9.160;2023-02-26T14:15:47;98557.72;;;2.88;63.38
141;BME280;65;48.778;9.160;2023-02-26T14:24:31;98552.66;;;2.81;62.08
141;BME280;65;48.778;9.160;2023-02-26T14:27:31;98553.44;;;4.87;57.43
141;BME280;65;48.778;9.160;2023-02-26T14:30:29;98550.53;;;7.19;49.77
141;BME280;65;48.778;9.160;2023-02-26T14:33:27;98550.69;;;6.53;50.46
141;BME280;65;48.778;9.160;2023-02-26T14:36:27;98558.03;;;5.05;52.70
141;BME280;65;48.778;9.160;2023-02-26T14:39:29;98561.06;;;3.86;57.74
141;BME280;65;48.778;9.160;2023-02-26T14:42:22;98574.31;;;2.85;61.17
141;BME280;65;48.778;9.160;2023-02-26T14:45:25;98559.69;;;2.45;63.16
141;BME280;65;48.778;9.160;2023-02-26T14:48:14;98567.03;;;2.28;64.18
141;BME280;65;48.778;9.160;2023-02-26T14:57:25;98565.53;;;4.38;58.24
141;BME280;65;48.778;9.160;2023-02-26T15:00:35;98564.38;;;6.40;50.53
141;BME280;65;48.778;9.160;2023-02-26T15:09:55;98572.47;;;4.92;52.45
141;BME280;65;48.778;9.160;2023-02-26T15:15:35;98591.66;;;3.82;55.35
141;BME280;65;48.778;9.160;2023-02-26T15:21:44;98598.09;;;3.08;61.06
141;BME280;65;48.778;9.160;2023-02-26T15:24:32;98589.75;;;2.60;58.71
141;BME280;65;48.778;9.160;2023-02-26T15:27:18;98593.94;;;2.32;60.94
141;BME280;65;48.778;9.160;2023-02-26T15:30:05;98592.97;;;2.36;60.13
141;BME280;65;48.778;9.160;2023-02-26T15:32:58;98599.03;;;2.36;62.32
141;BME280;65;48.778;9.160;2023-02-26T15:35:47;98601.72;;;2.33;61.46
141;BME280;65;48.778;9.160;2023-02-26T15:38:42;98607.34;;;2.15;62.51
141;BME280;65;48.778;9.160;2023-02-26T15:41:30;98600.38;;;1.77;64.04
141;BME280;65;48.778;9.160;2023-02-26T15:44:36;98617.31;;;1.54;64.29
141;BME280;65;48.778;9.160;2023-02-26T15:47:22;98614.63;;;1.57;63.70
141;BME280;65;48.778;9.160;2023-02-26T15:50:13;98612.03;;;1.57;64.39
141;BME280;65;48.778;9.160;2023-02-26T15:53:03;98610.59;;;1.86;62.64
141;BME280;65;48.778;9.160;2023-02-26T15:55:52;98610.97;;;2.08;61.44
141;BME280;65;48.778;9.160;2023-02-26T15:58:55;98615.41;;;2.04;62.12
141;BME280;65;48.778;9.160;2023-02-26T16:01:42;98617.72;;;2.16;61.20
141;BME280;65;48.778;9.160;2023-02-26T16:04:28;98616.75;;;2.20;62.64
141;BME280;65;48.778;9.160;2023-02-26T16:07:14;98623.63;;;2.25;61.43
141;BME280;65;48.778;9.160;2023-02-26T16:10:05;98624.09;;;2.03;60.14
141;BME280;65;48.778;9.160;2023-02-26T16:12:51;98634.41;;;1.68;59.00
141;BME280;65;48.778;9.160;2023-02-26T16:15:39;98638.91;;;1.59;57.43
141;BME280;65;48.778;9.160;2023-02-26T16:18:26;98654.06;;;1.39;59.64
141;BME280;65;48.778;9.160;2023-02-26T16:21:21;98654.25;;;1.30;59.19
141;BME280;65;48.778;9.160;2023-02-26T16:24:13;98661.41;;;1.19;61.37
141;BME280;65;48.778;9.160;2023-02-26T16:27:02;98669.25;;;1.14;60.36
141;BME280;65;48.778;9.160;2023-02-26T16:29:52;98674.47;;;1.14;60.01
141;BME280;65;48.778;9.160;2023-02-26T16:32:39;98673.53;;;1.20;60.78
141;BME280;65;48.778;9.160;2023-02-26T16:35:30;98692.59;;;1.22;61.76
141;BME280;65;48.778;9.160;2023-02-26T16:38:47;98690.88;;;1.21;61.25
141;BME280;65;48.778;9.160;2023-02-26T16:41:36;98697.00;;;1.17;62.73
141;BME280;65;48.778;9.160;2023-02-26T16:47:57;98697.75;;;1.23;59.42
141;BME280;65;48.778;9.160;2023-02-26T16:50:50;98712.63;;;1.15;58.36
141;BME280;65;48.778;9.160;2023-02-26T16:53:48;98713.50;;;1.14;58.02
141;BME280;65;48.778;9.160;2023-02-26T16:56:39;98730.03;;;1.13;59.83
141;BME280;65;48.778;9.160;2023-02-26T16:59:31;98729.13;;;1.16;59.51
141;BME280;65;48.778;9.160;2023-02-26T17:02:25;98724.78;;;1.15;58.12
141;BME280;65;48.778;9.160;2023-02-26T17:11:05;98744.03;;;1.05;58.65
141;BME280;65;48.778;9.160;2023-02-26T17:14:23;98717.19;;;1.03;57.75
141;BME280;65;48.778;9.160;2023-02-26T17:17:10;98750.13;;;1.04;57.79
141;BME280;65;48.778;9.160;2023-02-26T17:19:56;98749.41;;;0.95;58.57
141;BME280;65;48.778;9.160;2023-02-26T17:22:42;98757.25;;;0.92;60.95
141;BME280;65;48.778;9.160;2023-02-26T17:25:36;98754.59;;;0.95;59.49
141;BME280;65;48.778;9.160;2023-02-26T17:28:25;98752.06;;;0.91;59.18
141;BME280;65;48.778;9.160;2023-02-26T17:31:12;98766.03;;;0.85;59.74
141;BME280;65;48.778;9.160;2023-02-26T17:33:57;98766.16;;;0.78;62.02
141;BME280;65;48.778;9.160;2023-02-26T17:36:43;98776.59;;;0.75;62.21
141;BME280;65;48.778;9.160;2023-02-26T17:39:29;98773.03;;;0.82;61.13
141;BME280;65;48.778;9.160;2023-02-26T17:42:18;98777.59;;;0.66;62.83
141;BME280;65;48.778;9.160;2023-02-26T17:45:06;98787.09;;;0.69;63.03
141;BME280;65;48.778;9.160;2023-02-26T17:47:51;98791.41;;;0.70;64.15
141;BME280;65;48.778;9.160;2023-02-26T17:50:54;98789.75;;;0.64;64.49
141;BME280;65;48.778;9.160;2023-02-26T17:54:01;98788.94;;;0.62;64.03
141;BME280;65;48.778;9.160;2023-02-26T17:56:47;98777.84;;;0.46;64.84
141;BME280;65;48.778;9.160;2023-02-26T17:59:34;98791.88;;;0.33;66.30
141;BME280;65;48.778;9.160;2023-02-26T18:02:22;98798.03;;;0.27;64.79
141;BME280;65;48.778;9.160;2023-02-26T18:05:10;98797.31;;;0.16;66.31
141;BME280;65;48.778;9.160;2023-02-26T18:07:56;98793.06;;;0.09;66.18
141;BME280;65;48.778;9.160;2023-02-26T18:10:41;98797.44;;;0.04;64.67
141;BME280;65;48.778;9.160;2023-02-26T18:13:28;98802.59;;;0.07;65.09
141;BME280;65;48.778;9.160;2023-02-26T18:16:19;98793.13;;;0.05;63.73
141;BME280;65;48.778;9.160;2023-02-26T18:19:05;98800.06;;;-0.01;64.26
141;BME280;65;48.778;9.160;2023-02-26T18:21:51;98811.50;;;-0.15;64.88
141;BME280;65;48.778;9.160;2023-02-26T18:24:37;98803.72;;;-0.17;63.96
141;BME280;65;48.778;9.160;2023-02-26T18:27:25;98821.88;;;-0.15;65.54
141;BME280;65;48.778;9.160;2023-02-26T18:30:24;98819.19;;;-0.06;64.42
141;BME280;65;48.778;9.160;2023-02-26T18:33:12;98820.03;;;-0.04;64.13
141;BME280;65;48.778;9.160;2023-02-26T18:35:58;98815.03;;;-0.22;65.00
141;BME280;65;48.778;9.160;2023-02-26T18:38:43;98820.28;;;-0.28;65.99
141;BME280;65;48.778;9.160;2023-02-26T18:41:30;98819.38;;;-0.24;65.54
141;BME280;65;48.778;9.160;2023-02-26T18:44:17;98816.88;;;-0.34;64.07
141;BME280;65;48.778;9.160;2023-02-26T18:47:03;98828.97;;;-0.31;65.93
141;BME280;65;48.778;9.160;2023-02-26T18:49:49;98826.31;;;-0.25;65.51
141;BME280;65;48.778;9.160;2023-02-26T18:52:35;98828.81;;;-0.17;64.81
141;BME280;65;48.778;9.160;2023-02-26T18:55:21;98827.09;;;-0.17;64.80
141;BME280;65;48.778;9.160;2023-02-26T18:58:07;98834.19;;;-0.34;66.24